TimeEDT,TemperatureF,Dew PointF,Humidity,Sea Level PressureIn,VisibilityMPH,Wind Direction,Wind SpeedMPH,Gust SpeedMPH,PrecipitationIn,Events,Conditions,WindDirDegrees,DateUTC
12:39 AM,71.6,69.8,94,29.54,3.0,SSE,4.6,-,N/A,,Overcast,160,2013-06-29 04:39:00
12:52 AM,71.1,70.0,96,29.54,3.0,South,6.9,-,N/A,,Overcast,180,2013-06-29 04:52:00
12:59 AM,71.6,69.8,94,29.54,2.5,SSE,6.9,-,N/A,,Overcast,160,2013-06-29 04:59:00
1:26 AM,71.6,69.8,94,29.52,3.0,South,5.8,-,N/A,,Overcast,170,2013-06-29 05:26:00
1:52 AM,72.0,70.0,93,29.52,4.0,South,4.6,-,N/A,,Overcast,180,2013-06-29 05:52:00
2:06 AM,71.6,69.8,94,29.52,4.0,SSE,5.8,-,N/A,,Overcast,150,2013-06-29 06:06:00
2:42 AM,71.6,69.8,94,29.52,4.0,SSE,4.6,-,N/A,,Mostly Cloudy,160,2013-06-29 06:42:00
2:52 AM,72.0,70.0,93,29.52,4.0,SSE,4.6,-,N/A,,Overcast,160,2013-06-29 06:52:00
3:13 AM,71.6,69.8,94,29.51,5.0,Calm,Calm,-,N/A,,Overcast,0,2013-06-29 07:13:00
3:52 AM,71.1,69.1,93,29.51,5.0,Calm,Calm,-,N/A,,Overcast,0,2013-06-29 07:52:00
4:52 AM,71.1,69.1,93,29.53,6.0,Calm,Calm,-,N/A,,Overcast,0,2013-06-29 08:52:00
5:52 AM,71.1,69.1,93,29.56,4.0,South,3.5,-,N/A,,Overcast,190,2013-06-29 09:52:00
6:52 AM,72.0,68.0,87,29.56,5.0,Calm,Calm,-,N/A,,Overcast,0,2013-06-29 10:52:00
7:52 AM,73.0,68.0,84,29.57,8.0,SW,4.6,-,N/A,,Mostly Cloudy,220,2013-06-29 11:52:00
8:00 AM,73.4,68.0,83,29.57,9.0,Calm,Calm,-,N/A,,Scattered Clouds,0,2013-06-29 12:00:00
8:52 AM,75.0,68.0,79,29.59,9.0,South,8.1,-,N/A,,Partly Cloudy,180,2013-06-29 12:52:00
9:52 AM,73.0,69.1,87,29.59,6.0,SSE,5.8,-,0.01,Rain,Light Rain,160,2013-06-29 13:52:00
10:38 AM,73.4,69.8,88,29.60,9.0,South,9.2,-,0.00,,Mostly Cloudy,180,2013-06-29 14:38:00
10:52 AM,73.9,68.0,82,29.60,10.0,South,11.5,-,0.00,,Overcast,190,2013-06-29 14:52:00
11:52 AM,77.0,66.9,71,29.60,10.0,SSW,12.7,19.6,N/A,,Mostly Cloudy,210,2013-06-29 15:52:00
12:52 PM,79.0,66.0,64,29.61,10.0,SSW,11.5,19.6,N/A,,Scattered Clouds,200,2013-06-29 16:52:00
1:52 PM,80.1,66.9,64,29.62,10.0,South,13.8,-,N/A,,Mostly Cloudy,180,2013-06-29 17:52:00
2:52 PM,80.1,66.9,64,29.61,10.0,South,15.0,19.6,N/A,,Scattered Clouds,190,2013-06-29 18:52:00
3:52 PM,80.1,66.0,62,29.62,10.0,South,13.8,20.7,N/A,,Scattered Clouds,170,2013-06-29 19:52:00
4:52 PM,79.0,66.9,66,29.64,10.0,SSW,12.7,21.9,N/A,,Partly Cloudy,210,2013-06-29 20:52:00
5:52 PM,79.0,66.0,64,29.64,10.0,South,16.1,23.0,N/A,,Clear,190,2013-06-29 21:52:00
6:52 PM,78.1,66.9,68,29.65,10.0,South,11.5,17.3,N/A,,Clear,190,2013-06-29 22:52:00
7:39 PM,75.2,68.0,78,29.67,10.0,South,9.2,-,N/A,,Mostly Cloudy,190,2013-06-29 23:39:00
7:52 PM,75.0,68.0,79,29.67,10.0,SSW,8.1,-,N/A,,Mostly Cloudy,200,2013-06-29 23:52:00
8:52 PM,73.9,68.0,82,29.69,10.0,South,3.5,-,N/A,,Overcast,170,2013-06-30 00:52:00
9:39 PM,73.4,68.0,83,29.72,10.0,South,5.8,-,N/A,,Overcast,190,2013-06-30 01:39:00
9:52 PM,73.0,68.0,84,29.71,10.0,South,4.6,-,N/A,,Overcast,180,2013-06-30 01:52:00
10:52 PM,73.0,68.0,84,29.72,10.0,South,5.8,-,N/A,,Overcast,180,2013-06-30 02:52:00
11:52 PM,73.0,68.0,84,29.73,10.0,South,5.8,-,N/A,,Overcast,180,2013-06-30 03:52:00